sensor_id;sensor_type;location;lat;lon;timestamp;pressure;altitude;pressure_sealevel;temperature;humidity
62632;BME280;48703;51.248;-0.546;2023-04-29T00:01:37;101152;;;10.89;82.57
62632;BME280;48703;51.248;-0.546;2023-04-29T00:04:39;101153;;;10.82;83.03
62632;BME280;48703;51.248;-0.546;2023-04-29T00:07:41;101159;;;10.75;83.63
62632;BME280;48703;51.248;-0.546;2023-04-29T00:10:43;101162;;;10.67;83.74
62632;BME280;48703;51.248;-0.546;2023-04-29T00:13:45;101164;;;10.60;83.80
62632;BME280;48703;51.248;-0.546;2023-04-29T00:16:47;101168;;;10.55;83.52
62632;BME280;48703;51.248;-0.546;2023-04-29T00:19:49;101170;;;10.48;83.73
62632;BME280;48703;51.248;-0.546;2023-04-29T00:22:51;101171;;;10.42;84.60
62632;BME280;48703;51.248;-0.546;2023-04-29T00:25:53;101170;;;10.35;84.68
62632;BME280;48703;51.248;-0.546;2023-04-29T00:28:55;101172;;;10.28;84.50
62632;BME280;48703;51.248;-0.546;2023-04-29T00:31:57;101175;;;10.21;84.98
62632;BME280;48703;51.248;-0.546;2023-04-29T00:34:59;101175;;;10.14;84.96
62632;BME280;48703;51.248;-0.546;2023-04-29T00:38:01;101172;;;10.08;85.16
62632;BME280;48703;51.248;-0.546;2023-04-29T00:41:03;101172;;;10.04;85.43
62632;BME280;48703;51.248;-0.546;2023-04-29T00:44:05;101170;;;10.03;85.67
62632;BME280;48703;51.248;-0.546;2023-04-29T00:47:07;101171;;;9.97;85.62
62632;BME280;48703;51.248;-0.546;2023-04-29T00:50:09;101171;;;9.88;85.57
62632;BME280;48703;51.248;-0.546;2023-04-29T00:53:11;101172;;;9.86;85.65
62632;BME280;48703;51.248;-0.546;2023-04-29T00:56:13;101177;;;9.82;85.95
62632;BME280;48703;51.248;-0.546;2023-04-29T00:59:15;101182;;;9.77;86.01
62632;BME280;48703;51.248;-0.546;2023-04-29T01:02:17;101183;;;9.72;85.70
62632;BME280;48703;51.248;-0.546;2023-04-29T01:05:19;101181;;;9.67;85.85
62632;BME280;48703;51.248;-0.546;2023-04-29T01:08:23;101182;;;9.63;86.71
62632;BME280;48703;51.248;-0.546;2023-04-29T01:11:23;101184;;;9.59;85.61
62632;BME280;48703;51.248;-0.546;2023-04-29T01:14:25;101183;;;9.52;86.29
62632;BME280;48703;51.248;-0.546;2023-04-29T01:17:27;101184;;;9.48;86.56
62632;BME280;48703;51.248;-0.546;2023-04-29T01:20:29;101186;;;9.44;86.69
62632;BME280;48703;51.248;-0.546;2023-04-29T01:23:31;101187;;;9.38;86.93
62632;BME280;48703;51.248;-0.546;2023-04-29T01:26:33;101187;;;9.27;86.97
62632;BME280;48703;51.248;-0.546;2023-04-29T01:29:38;101185;;;9.19;87.13
62632;BME280;48703;51.248;-0.546;2023-04-29T01:32:41;101186;;;9.16;86.70
62632;BME280;48703;51.248;-0.546;2023-04-29T01:35:43;101187;;;9.12;86.46
62632;BME280;48703;51.248;-0.546;2023-04-29T01:38:43;101187;;;9.11;87.34
62632;BME280;48703;51.248;-0.546;2023-04-29T01:41:44;101188;;;9.10;87.62
62632;BME280;48703;51.248;-0.546;2023-04-29T01:44:45;101186;;;9.05;87.82
62632;BME280;48703;51.248;-0.546;2023-04-29T01:47:48;101185;;;8.98;87.49
62632;BME280;48703;51.248;-0.546;2023-04-29T01:50:50;101186;;;8.95;87.69
62632;BME280;48703;51.248;-0.546;2023-04-29T01:53:52;101190;;;8.94;87.24
62632;BME280;48703;51.248;-0.546;2023-04-29T01:56:54;101189;;;8.88;87.33
62632;BME280;48703;51.248;-0.546;2023-04-29T01:59:56;101191;;;8.72;87.21
62632;BME280;48703;51.248;-0.546;2023-04-29T02:02:58;101193;;;8.63;87.39
62632;BME280;48703;51.248;-0.546;2023-04-29T02:06:00;101192;;;8.55;87.60
62632;BME280;48703;51.248;-0.546;2023-04-29T02:09:02;101191;;;8.57;87.81
62632;BME280;48703;51.248;-0.546;2023-04-29T02:12:04;101195;;;8.51;88.04
62632;BME280;48703;51.248;-0.546;2023-04-29T02:15:06;101197;;;8.48;87.88
62632;BME280;48703;51.248;-0.546;2023-04-29T02:18:08;101200;;;8.45;88.00
62632;BME280;48703;51.248;-0.546;2023-04-29T02:21:10;101201;;;8.44;88.29
62632;BME280;48703;51.248;-0.546;2023-04-29T02:24:12;101204;;;8.41;88.16
62632;BME280;48703;51.248;-0.546;2023-04-29T02:27:14;101208;;;8.38;88.09
62632;BME280;48703;51.248;-0.546;2023-04-29T02:30:16;101210;;;8.34;88.05
62632;BME280;48703;51.248;-0.546;2023-04-29T02:33:18;101210;;;8.31;88.62
62632;BME280;48703;51.248;-0.546;2023-04-29T02:36:20;101216;;;8.27;88.35
62632;BME280;48703;51.248;-0.546;2023-04-29T02:39:22;101218;;;8.14;88.26
62632;BME280;48703;51.248;-0.546;2023-04-29T02:42:24;101215;;;8.12;88.46
62632;BME280;48703;51.248;-0.546;2023-04-29T02:45:26;101217;;;8.11;88.41
62632;BME280;48703;51.248;-0.546;2023-04-29T02:48:28;101219;;;8.01;88.65
62632;BME280;48703;51.248;-0.546;2023-04-29T02:51:30;101216;;;7.99;88.64
62632;BME280;48703;51.248;-0.546;2023-04-29T02:54:32;101215;;;8.01;88.83
62632;BME280;48703;51.248;-0.546;2023-04-29T02:57:34;101219;;;7.93;88.61
62632;BME280;48703;51.248;-0.546;2023-04-29T03:00:36;101222;;;7.87;88.18
62632;BME280;48703;51.248;-0.546;2023-04-29T03:03:38;101220;;;7.85;88.82
62632;BME280;48703;51.248;-0.546;2023-04-29T03:06:40;101220;;;7.80;89.16
62632;BME280;48703;51.248;-0.546;2023-04-29T03:09:42;101217;;;7.73;88.56
62632;BME280;48703;51.248;-0.546;2023-04-29T03:12:44;101218;;;7.64;88.84
62632;BME280;48703;51.248;-0.546;2023-04-29T03:15:46;101220;;;7.60;89.36
62632;BME280;48703;51.248;-0.546;2023-04-29T03:18:48;101218;;;7.65;89.21
62632;BME280;48703;51.248;-0.546;2023-04-29T03:21:50;101216;;;7.61;88.57
62632;BME280;48703;51.248;-0.546;2023-04-29T03:24:52;101212;;;7.52;89.53
62632;BME280;48703;51.248;-0.546;2023-04-29T03:27:54;101212;;;7.45;88.81
62632;BME280;48703;51.248;-0.546;2023-04-29T03:30:56;101211;;;7.41;89.08
62632;BME280;48703;51.248;-0.546;2023-04-29T03:33:58;101211;;;7.42;88.93
62632;BME280;48703;51.248;-0.546;2023-04-29T03:37:00;101210;;;7.38;89.23
62632;BME280;48703;51.248;-0.546;2023-04-29T03:40:02;101213;;;7.30;88.83
62632;BME280;48703;51.248;-0.546;2023-04-29T03:43:04;101214;;;7.23;88.82
62632;BME280;48703;51.248;-0.546;2023-04-29T03:46:06;101214;;;7.19;89.39
62632;BME280;48703;51.248;-0.546;2023-04-29T03:49:08;101217;;;7.21;89.95
62632;BME280;48703;51.248;-0.546;2023-04-29T03:52:10;101223;;;7.21;89.51
62632;BME280;48703;51.248;-0.546;2023-04-29T03:55:12;101230;;;7.21;89.34
62632;BME280;48703;51.248;-0.546;2023-04-29T03:58:14;101234;;;7.21;88.75
62632;BME280;48703;51.248;-0.546;2023-04-29T04:01:16;101234;;;7.19;89.00
62632;BME280;48703;51.248;-0.546;2023-04-29T04:04:18;101236;;;7.16;89.20
62632;BME280;48703;51.248;-0.546;2023-04-29T04:07:20;101239;;;7.15;89.59
62632;BME280;48703;51.248;-0.546;2023-04-29T04:10:22;101244;;;7.11;89.58
62632;BME280;48703;51.248;-0.546;2023-04-29T04:13:25;101248;;;7.00;89.35
62632;BME280;48703;51.248;-0.546;2023-04-29T04:16:26;101252;;;6.98;88.83
62632;BME280;48703;51.248;-0.546;2023-04-29T04:19:29;101256;;;6.97;89.03
62632;BME280;48703;51.248;-0.546;2023-04-29T04:22:30;101255;;;6.94;89.56
62632;BME280;48703;51.248;-0.546;2023-04-29T04:25:33;101253;;;6.93;89.45
62632;BME280;48703;51.248;-0.546;2023-04-29T04:28:34;101256;;;6.93;89.37
62632;BME280;48703;51.248;-0.546;2023-04-29T04:31:36;101261;;;6.91;90.24
62632;BME280;48703;51.248;-0.546;2023-04-29T04:34:38;101267;;;6.90;89.85
62632;BME280;48703;51.248;-0.546;2023-04-29T04:37:41;101275;;;6.87;90.32
62632;BME280;48703;51.248;-0.546;2023-04-29T04:40:43;101283;;;6.83;89.91
62632;BME280;48703;51.248;-0.546;2023-04-29T04:43:45;101290;;;6.75;90.19
62632;BME280;48703;51.248;-0.546;2023-04-29T04:46:47;101292;;;6.74;90.44
62632;BME280;48703;51.248;-0.546;2023-04-29T04:49:49;101294;;;6.77;90.67
62632;BME280;48703;51.248;-0.546;2023-04-29T04:52:51;101295;;;6.78;90.29
62632;BME280;48703;51.248;-0.546;2023-04-29T04:55:53;101298;;;6.78;90.02
62632;BME280;48703;51.248;-0.546;2023-04-29T04:58:55;101302;;;6.73;90.02
62632;BME280;48703;51.248;-0.546;2023-04-29T05:01:57;101308;;;6.65;90.29
62632;BME280;48703;51.248;-0.546;2023-04-29T05:04:59;101308;;;6.61;90.49
62632;BME280;48703;51.248;-0.546;2023-04-29T05:08:01;101314;;;6.59;91.35
62632;BME280;48703;51.248;-0.546;2023-04-29T05:11:03;101319;;;6.58;90.70
62632;BME280;48703;51.248;-0.546;2023-04-29T05:14:05;101321;;;6.62;90.83
62632;BME280;48703;51.248;-0.546;2023-04-29T05:17:07;101321;;;6.62;90.86
62632;BME280;48703;51.248;-0.546;2023-04-29T05:20:09;101323;;;6.61;90.14
62632;BME280;48703;51.248;-0.546;2023-04-29T05:23:11;101324;;;6.61;90.94
62632;BME280;48703;51.248;-0.546;2023-04-29T05:26:13;101326;;;6.60;91.31
62632;BME280;48703;51.248;-0.546;2023-04-29T05:29:15;101326;;;6.59;91.12
62632;BME280;48703;51.248;-0.546;2023-04-29T05:32:17;101327;;;6.61;91.16
62632;BME280;48703;51.248;-0.546;2023-04-29T05:35:19;101328;;;6.60;91.41
62632;BME280;48703;51.248;-0.546;2023-04-29T05:38:21;101333;;;6.67;91.63
62632;BME280;48703;51.248;-0.546;2023-04-29T05:41:23;101340;;;6.74;91.47
62632;BME280;48703;51.248;-0.546;2023-04-29T05:44:25;101339;;;6.79;92.31
62632;BME280;48703;51.248;-0.546;2023-04-29T05:47:27;101341;;;6.82;92.46
62632;BME280;48703;51.248;-0.546;2023-04-29T05:50:29;101343;;;6.85;92.94
62632;BME280;48703;51.248;-0.546;2023-04-29T05:53:31;101343;;;6.90;92.43
62632;BME280;48703;51.248;-0.546;2023-04-29T05:56:33;101344;;;6.96;93.16
62632;BME280;48703;51.248;-0.546;2023-04-29T05:59:35;101346;;;7.05;94.14
62632;BME280;48703;51.248;-0.546;2023-04-29T06:02:37;101345;;;7.10;93.55
62632;BME280;48703;51.248;-0.546;2023-04-29T06:05:39;101342;;;7.14;93.03
62632;BME280;48703;51.248;-0.546;2023-04-29T06:08:41;101345;;;7.17;93.40
62632;BME280;48703;51.248;-0.546;2023-04-29T06:11:43;101346;;;7.25;93.08
62632;BME280;48703;51.248;-0.546;2023-04-29T06:14:45;101346;;;7.32;93.69
62632;BME280;48703;51.248;-0.546;2023-04-29T06:17:47;101344;;;7.41;94.97
62632;BME280;48703;51.248;-0.546;2023-04-29T06:20:49;101347;;;7.48;95.11
62632;BME280;48703;51.248;-0.546;2023-04-29T06:23:51;101351;;;7.53;94.44
62632;BME280;48703;51.248;-0.546;2023-04-29T06:26:53;101358;;;7.59;95.09
62632;BME280;48703;51.248;-0.546;2023-04-29T06:29:55;101363;;;7.65;93.94
62632;BME280;48703;51.248;-0.546;2023-04-29T06:32:57;101365;;;7.69;93.94
62632;BME280;48703;51.248;-0.546;2023-04-29T06:35:59;101366;;;7.75;93.86
62632;BME280;48703;51.248;-0.546;2023-04-29T06:39:01;101371;;;7.83;93.57
62632;BME280;48703;51.248;-0.546;2023-04-29T06:42:03;101376;;;7.90;93.26
62632;BME280;48703;51.248;-0.546;2023-04-29T06:45:06;101380;;;7.97;93.59
62632;BME280;48703;51.248;-0.546;2023-04-29T06:48:07;101382;;;8.04;93.02
62632;BME280;48703;51.248;-0.546;2023-04-29T06:51:09;101383;;;8.10;93.12
62632;BME280;48703;51.248;-0.546;2023-04-29T06:54:11;101387;;;8.17;93.06
62632;BME280;48703;51.248;-0.546;2023-04-29T06:57:13;101390;;;8.24;92.49
62632;BME280;48703;51.248;-0.546;2023-04-29T07:00:15;101396;;;8.30;92.18
62632;BME280;48703;51.248;-0.546;2023-04-29T07:03:17;101401;;;8.40;92.28
62632;BME280;48703;51.248;-0.546;2023-04-29T07:06:19;101402;;;8.48;92.32
62632;BME280;48703;51.248;-0.546;2023-04-29T07:09:21;101401;;;8.55;91.54
62632;BME280;48703;51.248;-0.546;2023-04-29T07:12:23;101404;;;8.61;92.10
62632;BME280;48703;51.248;-0.546;2023-04-29T07:15:25;101408;;;8.66;91.29
62632;BME280;48703;51.248;-0.546;2023-04-29T07:18:27;101412;;;8.71;91.54
62632;BME280;48703;51.248;-0.546;2023-04-29T07:21:29;101411;;;8.76;91.49
62632;BME280;48703;51.248;-0.546;2023-04-29T07:24:31;101410;;;8.78;90.40
62632;BME280;48703;51.248;-0.546;2023-04-29T07:27:33;101412;;;8.81;89.72
62632;BME280;48703;51.248;-0.546;2023-04-29T07:30:35;101412;;;8.86;89.76
62632;BME280;48703;51.248;-0.546;2023-04-29T07:33:38;101417;;;8.92;89.09
62632;BME280;48703;51.248;-0.546;2023-04-29T07:36:40;101418;;;8.97;89.14
62632;BME280;48703;51.248;-0.546;2023-04-29T07:39:42;101415;;;9.03;89.80
62632;BME280;48703;51.248;-0.546;2023-04-29T07:42:44;101415;;;9.10;89.06
62632;BME280;48703;51.248;-0.546;2023-04-29T07:45:46;101416;;;9.16;89.03
62632;BME280;48703;51.248;-0.546;2023-04-29T07:48:48;101419;;;9.22;88.43
62632;BME280;48703;51.248;-0.546;2023-04-29T07:51:50;101425;;;9.29;88.60
62632;BME280;48703;51.248;-0.546;2023-04-29T07:54:52;101428;;;9.35;87.79
62632;BME280;48703;51.248;-0.546;2023-04-29T07:57:54;101431;;;9.41;87.49
62632;BME280;48703;51.248;-0.546;2023-04-29T08:00:56;101433;;;9.51;88.51
62632;BME280;48703;51.248;-0.546;2023-04-29T08:03:58;101433;;;9.61;87.57
62632;BME280;48703;51.248;-0.546;2023-04-29T08:07:01;101432;;;9.69;86.79
62632;BME280;48703;51.248;-0.546;2023-04-29T08:10:02;101431;;;9.77;86.36
62632;BME280;48703;51.248;-0.546;2023-04-29T08:13:04;101426;;;9.83;86.89
62632;BME280;48703;51.248;-0.546;2023-04-29T08:16:06;101420;;;9.91;86.47
62632;BME280;48703;51.248;-0.546;2023-04-29T08:19:08;101420;;;10.02;86.29
62632;BME280;48703;51.248;-0.546;2023-04-29T08:22:10;101418;;;10.07;85.97
62632;BME280;48703;51.248;-0.546;2023-04-29T08:25:12;101419;;;10.15;86.01
62632;BME280;48703;51.248;-0.546;2023-04-29T08:28:14;101422;;;10.26;86.63
62632;BME280;48703;51.248;-0.546;2023-04-29T08:31:16;101423;;;10.35;86.32
62632;BME280;48703;51.248;-0.546;2023-04-29T08:34:18;101425;;;10.43;85.48
62632;BME280;48703;51.248;-0.546;2023-04-29T08:37:20;101429;;;10.50;85.26
62632;BME280;48703;51.248;-0.546;2023-04-29T08:40:22;101435;;;10.55;84.42
62632;BME280;48703;51.248;-0.546;2023-04-29T08:43:24;101438;;;10.59;84.40
62632;BME280;48703;51.248;-0.546;2023-04-29T08:46:26;101443;;;10.63;83.72
62632;BME280;48703;51.248;-0.546;2023-04-29T08:49:28;101444;;;10.68;84.72
62632;BME280;48703;51.248;-0.546;2023-04-29T08:52:30;101449;;;10.78;84.39
62632;BME280;48703;51.248;-0.546;2023-04-29T08:55:33;101452;;;10.85;83.38
62632;BME280;48703;51.248;-0.546;2023-04-29T08:58:35;101457;;;10.93;82.92
62632;BME280;48703;51.248;-0.546;2023-04-29T09:01:36;101457;;;11.02;82.51
62632;BME280;48703;51.248;-0.546;2023-04-29T09:04:40;101459;;;11.06;82.68
62632;BME280;48703;51.248;-0.546;2023-04-29T09:07:40;101463;;;11.15;82.92
62632;BME280;48703;51.248;-0.546;2023-04-29T09:10:42;101467;;;11.25;81.33
62632;BME280;48703;51.248;-0.546;2023-04-29T09:13:44;101469;;;11.29;79.55
62632;BME280;48703;51.248;-0.546;2023-04-29T09:16:46;101470;;;11.33;79.34
62632;BME280;48703;51.248;-0.546;2023-04-29T09:19:48;101469;;;11.39;79.88
62632;BME280;48703;51.248;-0.546;2023-04-29T09:22:51;101472;;;11.52;80.94
62632;BME280;48703;51.248;-0.546;2023-04-29T09:25:54;101470;;;11.57;80.19
62632;BME280;48703;51.248;-0.546;2023-04-29T09:29:10;101470;;;11.65;80.13
62632;BME280;48703;51.248;-0.546;2023-04-29T09:31:56;101470;;;11.71;78.66
62632;BME280;48703;51.248;-0.546;2023-04-29T09:34:58;101468;;;11.78;80.40
62632;BME280;48703;51.248;-0.546;2023-04-29T09:38:08;101471;;;11.88;79.37
62632;BME280;48703;51.248;-0.546;2023-04-29T09:41:05;101474;;;11.93;78.58
62632;BME280;48703;51.248;-0.546;2023-04-29T09:44:04;101479;;;11.99;77.26
62632;BME280;48703;51.248;-0.546;2023-04-29T09:47:07;101478;;;12.05;77.54
62632;BME280;48703;51.248;-0.546;2023-04-29T09:50:09;101473;;;12.10;76.48
62632;BME280;48703;51.248;-0.546;2023-04-29T09:53:10;101471;;;12.19;77.62
62632;BME280;48703;51.248;-0.546;2023-04-29T09:56:12;101474;;;12.29;77.50
62632;BME280;48703;51.248;-0.546;2023-04-29T09:59:14;101473;;;12.37;76.82
62632;BME280;48703;51.248;-0.546;2023-04-29T10:02:17;101473;;;12.49;76.33
62632;BME280;48703;51.248;-0.546;2023-04-29T10:05:18;101475;;;12.54;76.85
62632;BME280;48703;51.248;-0.546;2023-04-29T10:08:20;101475;;;12.55;75.54
62632;BME280;48703;51.248;-0.546;2023-04-29T10:11:22;101479;;;12.61;75.34
62632;BME280;48703;51.248;-0.546;2023-04-29T10:14:24;101481;;;12.67;73.08
62632;BME280;48703;51.248;-0.546;2023-04-29T10:17:28;101477;;;12.77;73.53
62632;BME280;48703;51.248;-0.546;2023-04-29T10:20:28;101484;;;12.95;75.14
62632;BME280;48703;51.248;-0.546;2023-04-29T10:23:30;101484;;;13.10;74.85
62632;BME280;48703;51.248;-0.546;2023-04-29T10:26:32;101484;;;13.14;72.83
62632;BME280;48703;51.248;-0.546;2023-04-29T10:29:35;101486;;;13.21;73.28
62632;BME280;48703;51.248;-0.546;2023-04-29T10:32:37;101485;;;13.29;74.21
62632;BME280;48703;51.248;-0.546;2023-04-29T10:35:38;101485;;;13.33;73.17
62632;BME280;48703;51.248;-0.546;2023-04-29T10:38:41;101484;;;13.40;72.37
62632;BME280;48703;51.248;-0.546;2023-04-29T10:41:43;101478;;;13.47;71.94
62632;BME280;48703;51.248;-0.546;2023-04-29T10:45:15;101478;;;13.59;71.30
62632;BME280;48703;51.248;-0.546;2023-04-29T10:48:07;101475;;;13.66;71.31
62632;BME280;48703;51.248;-0.546;2023-04-29T10:51:04;101473;;;13.75;72.66
62632;BME280;48703;51.248;-0.546;2023-04-29T10:53:58;101472;;;13.82;72.36
62632;BME280;48703;51.248;-0.546;2023-04-29T10:56:53;101465;;;13.92;71.12
62632;BME280;48703;51.248;-0.546;2023-04-29T10:59:55;101465;;;14.01;70.89
62632;BME280;48703;51.248;-0.546;2023-04-29T11:02:57;101462;;;14.11;71.39
62632;BME280;48703;51.248;-0.546;2023-04-29T11:06:07;101464;;;14.16;69.86
62632;BME280;48703;51.248;-0.546;2023-04-29T11:09:01;101468;;;14.23;70.16
62632;BME280;48703;51.248;-0.546;2023-04-29T11:12:03;101471;;;14.29;70.92
62632;BME280;48703;51.248;-0.546;2023-04-29T11:15:05;101470;;;14.39;71.45
62632;BME280;48703;51.248;-0.546;2023-04-29T11:18:09;101468;;;14.46;69.66
62632;BME280;48703;51.248;-0.546;2023-04-29T11:21:11;101465;;;14.56;71.61
62632;BME280;48703;51.248;-0.546;2023-04-29T11:24:11;101462;;;14.66;71.45
62632;BME280;48703;51.248;-0.546;2023-04-29T11:27:13;101465;;;14.74;71.97
62632;BME280;48703;51.248;-0.546;2023-04-29T11:30:15;101468;;;14.81;69.58
62632;BME280;48703;51.248;-0.546;2023-04-29T11:33:18;101471;;;14.86;68.61
62632;BME280;48703;51.248;-0.546;2023-04-29T11:36:19;101471;;;14.90;67.42
62632;BME280;48703;51.248;-0.546;2023-04-29T11:39:21;101465;;;14.98;69.83
62632;BME280;48703;51.248;-0.546;2023-04-29T11:42:23;101464;;;15.10;69.29
62632;BME280;48703;51.248;-0.546;2023-04-29T11:45:25;101462;;;15.25;69.10
62632;BME280;48703;51.248;-0.546;2023-04-29T11:48:27;101461;;;15.35;69.42
62632;BME280;48703;51.248;-0.546;2023-04-29T11:51:29;101459;;;15.43;68.65
62632;BME280;48703;51.248;-0.546;2023-04-29T11:54:31;101460;;;15.48;67.99
62632;BME280;48703;51.248;-0.546;2023-04-29T11:57:33;101458;;;15.55;65.95
62632;BME280;48703;51.248;-0.546;2023-04-29T12:00:35;101460;;;15.65;66.26
62632;BME280;48703;51.248;-0.546;2023-04-29T12:03:37;101456;;;15.73;65.66
62632;BME280;48703;51.248;-0.546;2023-04-29T12:06:39;101457;;;15.83;67.31
62632;BME280;48703;51.248;-0.546;2023-04-29T12:09:41;101454;;;15.91;66.30
62632;BME280;48703;51.248;-0.546;2023-04-29T12:12:43;101452;;;16.00;66.05
62632;BME280;48703;51.248;-0.546;2023-04-29T12:15:45;101450;;;16.02;65.21
62632;BME280;48703;51.248;-0.546;2023-04-29T12:18:47;101454;;;15.99;63.41
62632;BME280;48703;51.248;-0.546;2023-04-29T12:21:49;101454;;;15.99;62.46
62632;BME280;48703;51.248;-0.546;2023-04-29T12:24:51;101449;;;16.09;66.02
62632;BME280;48703;51.248;-0.546;2023-04-29T12:27:57;101448;;;16.15;65.47
62632;BME280;48703;51.248;-0.546;2023-04-29T12:30:56;101449;;;16.18;64.41
62632;BME280;48703;51.248;-0.546;2023-04-29T12:33:57;101446;;;16.16;63.60
62632;BME280;48703;51.248;-0.546;2023-04-29T12:36:59;101447;;;16.17;64.17
62632;BME280;48703;51.248;-0.546;2023-04-29T12:40:01;101449;;;16.20;64.07
62632;BME280;48703;51.248;-0.546;2023-04-29T12:43:07;101447;;;16.30;63.41
62632;BME280;48703;51.248;-0.546;2023-04-29T12:46:06;101448;;;16.40;63.03
62632;BME280;48703;51.248;-0.546;2023-04-29T12:49:07;101448;;;16.50;64.11
62632;BME280;48703;51.248;-0.546;2023-04-29T12:52:09;101447;;;16.50;62.07
62632;BME280;48703;51.248;-0.546;2023-04-29T12:55:11;101448;;;16.46;61.50
62632;BME280;48703;51.248;-0.546;2023-04-29T12:58:13;101444;;;16.42;64.50
62632;BME280;48703;51.248;-0.546;2023-04-29T13:01:15;101443;;;16.41;64.00
62632;BME280;48703;51.248;-0.546;2023-04-29T13:04:17;101443;;;16.36;61.75
62632;BME280;48703;51.248;-0.546;2023-04-29T13:07:19;101444;;;16.39;65.63
62632;BME280;48703;51.248;-0.546;2023-04-29T13:10:22;101446;;;16.42;64.27
62632;BME280;48703;51.248;-0.546;2023-04-29T13:13:23;101444;;;16.47;64.00
62632;BME280;48703;51.248;-0.546;2023-04-29T13:16:25;101439;;;16.59;61.53
62632;BME280;48703;51.248;-0.546;2023-04-29T13:19:28;101444;;;16.74;65.17
62632;BME280;48703;51.248;-0.546;2023-04-29T13:22:30;101448;;;16.77;64.77
62632;BME280;48703;51.248;-0.546;2023-04-29T13:25:32;101447;;;16.74;65.08
62632;BME280;48703;51.248;-0.546;2023-04-29T13:28:34;101445;;;16.68;64.61
62632;BME280;48703;51.248;-0.546;2023-04-29T13:31:36;101448;;;16.60;61.25
62632;BME280;48703;51.248;-0.546;2023-04-29T13:34:38;101449;;;16.53;60.85
62632;BME280;48703;51.248;-0.546;2023-04-29T13:37:40;101451;;;16.49;60.97
62632;BME280;48703;51.248;-0.546;2023-04-29T13:40:42;101452;;;16.45;60.61
62632;BME280;48703;51.248;-0.546;2023-04-29T13:43:44;101455;;;16.42;61.66
62632;BME280;48703;51.248;-0.546;2023-04-29T13:46:46;101455;;;16.40;63.29
62632;BME280;48703;51.248;-0.546;2023-04-29T13:49:48;101452;;;16.53;64.50
62632;BME280;48703;51.248;-0.546;2023-04-29T13:52:50;101444;;;16.69;60.15
62632;BME280;48703;51.248;-0.546;2023-04-29T13:55:52;101447;;;16.89;60.75
62632;BME280;48703;51.248;-0.546;2023-04-29T13:58:54;101448;;;17.17;63.92
62632;BME280;48703;51.248;-0.546;2023-04-29T14:01:56;101446;;;17.38;61.55
62632;BME280;48703;51.248;-0.546;2023-04-29T14:04:58;101447;;;17.58;63.35
62632;BME280;48703;51.248;-0.546;2023-04-29T14:08:00;101446;;;17.56;59.10
62632;BME280;48703;51.248;-0.546;2023-04-29T14:11:02;101445;;;17.46;60.14
62632;BME280;48703;51.248;-0.546;2023-04-29T14:14:04;101442;;;17.38;59.95
62632;BME280;48703;51.248;-0.546;2023-04-29T14:17:06;101443;;;17.29;60.89
62632;BME280;48703;51.248;-0.546;2023-04-29T14:20:08;101443;;;17.21;61.08
62632;BME280;48703;51.248;-0.546;2023-04-29T14:23:10;101443;;;17.11;61.32
62632;BME280;48703;51.248;-0.546;2023-04-29T14:26:12;101442;;;17.04;61.31
62632;BME280;48703;51.248;-0.546;2023-04-29T14:29:14;101443;;;16.98;62.28
62632;BME280;48703;51.248;-0.546;2023-04-29T14:32:16;101445;;;16.93;62.36
62632;BME280;48703;51.248;-0.546;2023-04-29T14:35:18;101445;;;16.89;61.94
62632;BME280;48703;51.248;-0.546;2023-04-29T14:38:20;101449;;;16.85;63.11
62632;BME280;48703;51.248;-0.546;2023-04-29T14:41:22;101449;;;16.85;63.92
62632;BME280;48703;51.248;-0.546;2023-04-29T14:44:24;101449;;;16.84;64.19
62632;BME280;48703;51.248;-0.546;2023-04-29T14:47:26;101448;;;16.85;63.70
62632;BME280;48703;51.248;-0.546;2023-04-29T14:50:28;101446;;;16.86;63.32
62632;BME280;48703;51.248;-0.546;2023-04-29T14:53:30;101444;;;16.88;63.75
62632;BME280;48703;51.248;-0.546;2023-04-29T14:56:32;101444;;;16.90;64.54
62632;BME280;48703;51.248;-0.546;2023-04-29T14:59:34;101442;;;17.07;64.68
62632;BME280;48703;51.248;-0.546;2023-04-29T15:02:36;101442;;;17.36;64.26
62632;BME280;48703;51.248;-0.546;2023-04-29T15:05:38;101443;;;17.63;61.78
62632;BME280;48703;51.248;-0.546;2023-04-29T15:08:40;101441;;;17.82;62.66
62632;BME280;48703;51.248;-0.546;2023-04-29T15:11:42;101440;;;18.08;63.95
62632;BME280;48703;51.248;-0.546;2023-04-29T15:14:44;101436;;;18.35;62.08
62632;BME280;48703;51.248;-0.546;2023-04-29T15:17:46;101434;;;18.37;58.58
62632;BME280;48703;51.248;-0.546;2023-04-29T15:20:48;101431;;;18.29;59.69
62632;BME280;48703;51.248;-0.546;2023-04-29T15:23:50;101428;;;18.30;60.00
62632;BME280;48703;51.248;-0.546;2023-04-29T15:26:52;101428;;;18.25;58.73
62632;BME280;48703;51.248;-0.546;2023-04-29T15:29:54;101428;;;18.08;57.36
62632;BME280;48703;51.248;-0.546;2023-04-29T15:32:56;101428;;;17.98;59.16
62632;BME280;48703;51.248;-0.546;2023-04-29T15:35:58;101432;;;17.90;58.22
62632;BME280;48703;51.248;-0.546;2023-04-29T15:39:00;101433;;;17.83;60.56
62632;BME280;48703;51.248;-0.546;2023-04-29T15:42:02;101432;;;17.82;60.74
62632;BME280;48703;51.248;-0.546;2023-04-29T15:45:05;101433;;;17.78;58.73
62632;BME280;48703;51.248;-0.546;2023-04-29T15:48:06;101432;;;17.74;61.21
62632;BME280;48703;51.248;-0.546;2023-04-29T15:51:08;101433;;;17.73;60.98
62632;BME280;48703;51.248;-0.546;2023-04-29T15:54:10;101431;;;17.69;60.46
62632;BME280;48703;51.248;-0.546;2023-04-29T15:57:12;101432;;;17.62;58.16
62632;BME280;48703;51.248;-0.546;2023-04-29T16:00:14;101431;;;17.60;60.59
62632;BME280;48703;51.248;-0.546;2023-04-29T16:03:16;101431;;;17.59;60.47
62632;BME280;48703;51.248;-0.546;2023-04-29T16:06:18;101430;;;17.56;58.78
62632;BME280;48703;51.248;-0.546;2023-04-29T16:09:20;101428;;;17.49;58.97
62632;BME280;48703;51.248;-0.546;2023-04-29T16:12:22;101427;;;17.48;59.55
62632;BME280;48703;51.248;-0.546;2023-04-29T16:15:24;101428;;;17.45;59.67
62632;BME280;48703;51.248;-0.546;2023-04-29T16:18:26;101426;;;17.44;60.18
62632;BME280;48703;51.248;-0.546;2023-04-29T16:21:29;101425;;;17.39;59.10